sensor_id;sensor_type;location;lat;lon;timestamp;temperature;humidity
23609;DHT22;11982;50.810;4.442;2023-05-07T00:00:18;16.00;99.90
23609;DHT22;11982;50.810;4.442;2023-05-07T00:02:45;16.00;99.90
23609;DHT22;11982;50.810;4.442;2023-05-07T00:05:10;16.00;99.90
23609;DHT22;11982;50.810;4.442;2023-05-07T00:07:36;16.00;99.90
23609;DHT22;11982;50.810;4.442;2023-05-07T00:10:03;16.00;99.90
23609;DHT22;11982;50.810;4.442;2023-05-07T00:12:29;16.00;99.90
23609;DHT22;11982;50.810;4.442;2023-05-07T00:14:57;15.90;99.90
23609;DHT22;11982;50.810;4.442;2023-05-07T00:17:23;16.00;99.90
23609;DHT22;11982;50.810;4.442;2023-05-07T00:19:48;16.00;99.90
23609;DHT22;11982;50.810;4.442;2023-05-07T00:25:36;16.10;99.90
23609;DHT22;11982;50.810;4.442;2023-05-07T00:28:01;16.00;99.90
23609;DHT22;11982;50.810;4.442;2023-05-07T00:30:29;16.10;99.90
23609;DHT22;11982;50.810;4.442;2023-05-07T00:32:55;16.10;99.90
23609;DHT22;11982;50.810;4.442;2023-05-07T00:35:21;16.00;99.90
23609;DHT22;11982;50.810;4.442;2023-05-07T00:37:47;15.80;99.90
23609;DHT22;11982;50.810;4.442;2023-05-07T00:40:14;15.90;99.90
23609;DHT22;11982;50.810;4.442;2023-05-07T00:42:40;15.80;99.90
23609;DHT22;11982;50.810;4.442;2023-05-07T00:45:06;15.80;99.90
23609;DHT22;11982;50.810;4.442;2023-05-07T00:47:33;15.80;99.90
23609;DHT22;11982;50.810;4.442;2023-05-07T00:49:58;15.90;99.90
23609;DHT22;11982;50.810;4.442;2023-05-07T00:55:47;16.00;99.90
23609;DHT22;11982;50.810;4.442;2023-05-07T00:58:13;16.10;99.90
23609;DHT22;11982;50.810;4.442;2023-05-07T01:00:39;16.00;99.90
23609;DHT22;11982;50.810;4.442;2023-05-07T01:03:05;16.00;99.90
23609;DHT22;11982;50.810;4.442;2023-05-07T01:05:31;15.80;99.90
23609;DHT22;11982;50.810;4.442;2023-05-07T01:11:19;15.70;99.90
23609;DHT22;11982;50.810;4.442;2023-05-07T01:13:46;15.90;99.90
23609;DHT22;11982;50.810;4.442;2023-05-07T01:16:12;15.90;99.90
23609;DHT22;11982;50.810;4.442;2023-05-07T01:18:38;15.80;99.90
23609;DHT22;11982;50.810;4.442;2023-05-07T01:21:05;15.90;99.90
23609;DHT22;11982;50.810;4.442;2023-05-07T01:23:30;15.90;99.90
23609;DHT22;11982;50.810;4.442;2023-05-07T01:25:56;16.00;99.90
23609;DHT22;11982;50.810;4.442;2023-05-07T01:28:22;16.10;99.90
23609;DHT22;11982;50.810;4.442;2023-05-07T01:30:54;16.00;99.90
23609;DHT22;11982;50.810;4.442;2023-05-07T01:33:21;16.00;99.90
23609;DHT22;11982;50.810;4.442;2023-05-07T01:35:51;16.10;99.90
23609;DHT22;11982;50.810;4.442;2023-05-07T01:41:39;15.90;99.90
23609;DHT22;11982;50.810;4.442;2023-05-07T01:44:05;16.00;99.90
23609;DHT22;11982;50.810;4.442;2023-05-07T01:46:31;15.80;99.90
23609;DHT22;11982;50.810;4.442;2023-05-07T01:48:58;15.70;99.90
23609;DHT22;11982;50.810;4.442;2023-05-07T01:51:24;15.70;99.90
23609;DHT22;11982;50.810;4.442;2023-05-07T01:53:52;15.80;99.90
23609;DHT22;11982;50.810;4.442;2023-05-07T01:56:19;15.90;99.90
23609;DHT22;11982;50.810;4.442;2023-05-07T01:58:46;16.10;99.90
23609;DHT22;11982;50.810;4.442;2023-05-07T02:01:13;16.10;99.90
23609;DHT22;11982;50.810;4.442;2023-05-07T02:03:39;16.10;99.90
23609;DHT22;11982;50.810;4.442;2023-05-07T02:06:05;16.10;99.90
23609;DHT22;11982;50.810;4.442;2023-05-07T02:11:52;16.00;99.90
23609;DHT22;11982;50.810;4.442;2023-05-07T02:14:17;15.80;99.90
23609;DHT22;11982;50.810;4.442;2023-05-07T02:16:45;15.60;99.90
23609;DHT22;11982;50.810;4.442;2023-05-07T02:19:11;15.70;99.90
23609;DHT22;11982;50.810;4.442;2023-05-07T02:21:36;15.70;99.90
23609;DHT22;11982;50.810;4.442;2023-05-07T02:24:02;15.70;99.90
23609;DHT22;11982;50.810;4.442;2023-05-07T02:26:27;15.70;99.90
23609;DHT22;11982;50.810;4.442;2023-05-07T02:28:53;15.70;99.90
23609;DHT22;11982;50.810;4.442;2023-05-07T02:31:19;15.60;99.90
23609;DHT22;11982;50.810;4.442;2023-05-07T02:33:45;15.60;99.90
23609;DHT22;11982;50.810;4.442;2023-05-07T02:36:11;15.60;99.90
23609;DHT22;11982;50.810;4.442;2023-05-07T02:41:59;15.30;99.90
23609;DHT22;11982;50.810;4.442;2023-05-07T02:44:25;15.40;99.90
23609;DHT22;11982;50.810;4.442;2023-05-07T02:46:50;15.40;99.90
23609;DHT22;11982;50.810;4.442;2023-05-07T02:49:16;15.30;99.90
23609;DHT22;11982;50.810;4.442;2023-05-07T02:51:42;15.10;99.90
23609;DHT22;11982;50.810;4.442;2023-05-07T02:57:29;15.00;99.90
23609;DHT22;11982;50.810;4.442;2023-05-07T02:59:55;15.20;99.90
23609;DHT22;11982;50.810;4.442;2023-05-07T03:02:21;15.20;99.90
23609;DHT22;11982;50.810;4.442;2023-05-07T03:04:47;15.30;99.90
23609;DHT22;11982;50.810;4.442;2023-05-07T03:07:12;15.40;99.90
23609;DHT22;11982;50.810;4.442;2023-05-07T03:09:38;15.50;99.90
23609;DHT22;11982;50.810;4.442;2023-05-07T03:12:03;15.50;99.90
23609;DHT22;11982;50.810;4.442;2023-05-07T03:14:29;15.50;99.90
23609;DHT22;11982;50.810;4.442;2023-05-07T03:16:55;15.60;99.90
23609;DHT22;11982;50.810;4.442;2023-05-07T03:19:21;15.60;99.90
23609;DHT22;11982;50.810;4.442;2023-05-07T03:21:46;15.60;99.90
23609;DHT22;11982;50.810;4.442;2023-05-07T03:27:34;15.70;99.90
23609;DHT22;11982;50.810;4.442;2023-05-07T03:30:00;15.70;99.90
23609;DHT22;11982;50.810;4.442;2023-05-07T03:32:26;15.60;99.90
23609;DHT22;11982;50.810;4.442;2023-05-07T03:34:51;15.70;99.90
23609;DHT22;11982;50.810;4.442;2023-05-07T03:37:17;15.70;99.90
23609;DHT22;11982;50.810;4.442;2023-05-07T03:43:05;15.50;99.90
23609;DHT22;11982;50.810;4.442;2023-05-07T03:45:31;15.60;99.90
23609;DHT22;11982;50.810;4.442;2023-05-07T03:47:56;15.70;99.90
23609;DHT22;11982;50.810;4.442;2023-05-07T03:50:22;15.70;99.90
23609;DHT22;11982;50.810;4.442;2023-05-07T03:52:48;15.80;99.90
23609;DHT22;11982;50.810;4.442;2023-05-07T03:55:13;15.80;99.90
23609;DHT22;11982;50.810;4.442;2023-05-07T03:57:39;15.80;99.90
23609;DHT22;11982;50.810;4.442;2023-05-07T04:00:05;15.80;99.90
23609;DHT22;11982;50.810;4.442;2023-05-07T04:02:32;15.90;99.90
23609;DHT22;11982;50.810;4.442;2023-05-07T04:04:58;15.90;99.90
23609;DHT22;11982;50.810;4.442;2023-05-07T04:07:24;15.80;99.90
23609;DHT22;11982;50.810;4.442;2023-05-07T04:13:11;15.80;99.90
23609;DHT22;11982;50.810;4.442;2023-05-07T04:15:37;16.00;99.90
23609;DHT22;11982;50.810;4.442;2023-05-07T04:18:03;15.90;99.90
23609;DHT22;11982;50.810;4.442;2023-05-07T04:20:28;16.00;99.90
23609;DHT22;11982;50.810;4.442;2023-05-07T04:22:54;16.10;99.90
23609;DHT22;11982;50.810;4.442;2023-05-07T04:25:20;16.10;99.90
23609;DHT22;11982;50.810;4.442;2023-05-07T04:27:45;16.20;99.90
23609;DHT22;11982;50.810;4.442;2023-05-07T04:30:11;16.20;99.90
23609;DHT22;11982;50.810;4.442;2023-05-07T04:32:38;16.30;99.90
23609;DHT22;11982;50.810;4.442;2023-05-07T04:35:04;16.40;99.90
23609;DHT22;11982;50.810;4.442;2023-05-07T04:37:32;16.40;99.90
23609;DHT22;11982;50.810;4.442;2023-05-07T04:43:19;16.10;99.90
23609;DHT22;11982;50.810;4.442;2023-05-07T04:45:45;15.70;99.90
23609;DHT22;11982;50.810;4.442;2023-05-07T04:48:11;15.80;99.90
23609;DHT22;11982;50.810;4.442;2023-05-07T04:50:36;16.00;99.90
23609;DHT22;11982;50.810;4.442;2023-05-07T04:53:02;16.00;99.90
23609;DHT22;11982;50.810;4.442;2023-05-07T04:55:28;16.00;99.90
23609;DHT22;11982;50.810;4.442;2023-05-07T04:57:54;16.10;99.90
23609;DHT22;11982;50.810;4.442;2023-05-07T05:00:19;16.30;99.90
23609;DHT22;11982;50.810;4.442;2023-05-07T05:02:45;16.30;99.90
23609;DHT22;11982;50.810;4.442;2023-05-07T05:05:11;16.30;99.90
23609;DHT22;11982;50.810;4.442;2023-05-07T05:07:37;16.30;99.90
23609;DHT22;11982;50.810;4.442;2023-05-07T05:13:24;16.40;99.90
23609;DHT22;11982;50.810;4.442;2023-05-07T05:15:50;16.50;99.90
23609;DHT22;11982;50.810;4.442;2023-05-07T05:18:16;16.70;99.90
23609;DHT22;11982;50.810;4.442;2023-05-07T05:20:41;16.80;99.90
23609;DHT22;11982;50.810;4.442;2023-05-07T05:23:08;16.80;99.90
23609;DHT22;11982;50.810;4.442;2023-05-07T05:28:55;17.20;99.90
23609;DHT22;11982;50.810;4.442;2023-05-07T05:31:21;17.20;99.90
23609;DHT22;11982;50.810;4.442;2023-05-07T05:33:47;17.40;99.90
23609;DHT22;11982;50.810;4.442;2023-05-07T05:36:12;17.50;99.90
23609;DHT22;11982;50.810;4.442;2023-05-07T05:38:39;17.60;99.90
23609;DHT22;11982;50.810;4.442;2023-05-07T05:41:05;17.70;99.90
23609;DHT22;11982;50.810;4.442;2023-05-07T05:43:31;17.70;99.90
23609;DHT22;11982;50.810;4.442;2023-05-07T05:45:57;17.80;99.90
23609;DHT22;11982;50.810;4.442;2023-05-07T05:48:23;17.80;99.90
23609;DHT22;11982;50.810;4.442;2023-05-07T05:50:49;17.80;99.90
23609;DHT22;11982;50.810;4.442;2023-05-07T05:53:14;17.90;99.90
23609;DHT22;11982;50.810;4.442;2023-05-07T05:59:02;17.90;99.90
23609;DHT22;11982;50.810;4.442;2023-05-07T06:01:28;17.90;99.90
23609;DHT22;11982;50.810;4.442;2023-05-07T06:03:54;17.80;99.90
23609;DHT22;11982;50.810;4.442;2023-05-07T06:06:19;17.20;99.90
23609;DHT22;11982;50.810;4.442;2023-05-07T06:08:45;16.90;99.90
23609;DHT22;11982;50.810;4.442;2023-05-07T06:14:33;16.80;99.90
23609;DHT22;11982;50.810;4.442;2023-05-07T06:16:59;17.00;99.90
23609;DHT22;11982;50.810;4.442;2023-05-07T06:19:24;17.20;99.90
23609;DHT22;11982;50.810;4.442;2023-05-07T06:21:51;17.00;99.90
23609;DHT22;11982;50.810;4.442;2023-05-07T06:24:17;17.00;99.90
23609;DHT22;11982;50.810;4.442;2023-05-07T06:26:43;16.60;99.90
23609;DHT22;11982;50.810;4.442;2023-05-07T06:29:08;16.30;99.90
23609;DHT22;11982;50.810;4.442;2023-05-07T06:31:34;16.10;99.90
23609;DHT22;11982;50.810;4.442;2023-05-07T06:34:00;16.10;99.90
23609;DHT22;11982;50.810;4.442;2023-05-07T06:36:27;16.10;99.90
23609;DHT22;11982;50.810;4.442;2023-05-07T06:38:53;16.10;99.90
23609;DHT22;11982;50.810;4.442;2023-05-07T06:44:41;16.00;99.90
23609;DHT22;11982;50.810;4.442;2023-05-07T06:47:06;16.10;99.90
23609;DHT22;11982;50.810;4.442;2023-05-07T06:49:32;16.10;99.90
23609;DHT22;11982;50.810;4.442;2023-05-07T06:51:58;16.30;99.90
23609;DHT22;11982;50.810;4.442;2023-05-07T06:54:24;16.30;99.90
23609;DHT22;11982;50.810;4.442;2023-05-07T06:56:50;16.20;99.90
23609;DHT22;11982;50.810;4.442;2023-05-07T06:59:16;16.00;99.90
23609;DHT22;11982;50.810;4.442;2023-05-07T07:01:41;15.80;99.90
23609;DHT22;11982;50.810;4.442;2023-05-07T07:04:07;15.70;99.90
23609;DHT22;11982;50.810;4.442;2023-05-07T07:06:33;15.50;99.90
23609;DHT22;11982;50.810;4.442;2023-05-07T07:08:59;15.50;99.90
23609;DHT22;11982;50.810;4.442;2023-05-07T07:14:47;15.40;99.90
23609;DHT22;11982;50.810;4.442;2023-05-07T07:17:13;15.40;99.90
23609;DHT22;11982;50.810;4.442;2023-05-07T07:19:38;15.30;99.90
23609;DHT22;11982;50.810;4.442;2023-05-07T07:22:04;15.40;99.90
23609;DHT22;11982;50.810;4.442;2023-05-07T07:24:30;15.30;99.90
23609;DHT22;11982;50.810;4.442;2023-05-07T07:30:18;15.40;99.90
23609;DHT22;11982;50.810;4.442;2023-05-07T07:32:43;15.40;99.90
23609;DHT22;11982;50.810;4.442;2023-05-07T07:35:09;15.50;99.90
23609;DHT22;11982;50.810;4.442;2023-05-07T07:37:35;15.40;99.90
23609;DHT22;11982;50.810;4.442;2023-05-07T07:40:01;15.50;99.90
23609;DHT22;11982;50.810;4.442;2023-05-07T07:42:26;15.40;99.90
23609;DHT22;11982;50.810;4.442;2023-05-07T07:44:52;15.40;99.90
23609;DHT22;11982;50.810;4.442;2023-05-07T07:47:18;15.60;99.90
23609;DHT22;11982;50.810;4.442;2023-05-07T07:49:43;15.70;99.90
23609;DHT22;11982;50.810;4.442;2023-05-07T07:52:09;15.80;99.90
23609;DHT22;11982;50.810;4.442;2023-05-07T07:54:35;15.90;99.90
23609;DHT22;11982;50.810;4.442;2023-05-07T08:00:22;15.60;99.90
23609;DHT22;11982;50.810;4.442;2023-05-07T08:02:48;15.40;99.90
23609;DHT22;11982;50.810;4.442;2023-05-07T08:05:14;15.50;99.90
23609;DHT22;11982;50.810;4.442;2023-05-07T08:07:40;15.40;99.90
23609;DHT22;11982;50.810;4.442;2023-05-07T08:10:06;15.30;99.90
23609;DHT22;11982;50.810;4.442;2023-05-07T08:15:54;15.80;99.90
23609;DHT22;11982;50.810;4.442;2023-05-07T08:18:19;16.00;99.90
23609;DHT22;11982;50.810;4.442;2023-05-07T08:20:45;15.80;99.90
23609;DHT22;11982;50.810;4.442;2023-05-07T08:23:11;15.70;99.90
23609;DHT22;11982;50.810;4.442;2023-05-07T08:25:37;15.60;99.90
23609;DHT22;11982;50.810;4.442;2023-05-07T08:28:03;15.60;99.90
23609;DHT22;11982;50.810;4.442;2023-05-07T08:30:28;15.70;99.90
23609;DHT22;11982;50.810;4.442;2023-05-07T08:32:54;15.70;99.90
23609;DHT22;11982;50.810;4.442;2023-05-07T08:35:20;15.70;99.90
23609;DHT22;11982;50.810;4.442;2023-05-07T08:37:46;15.60;99.90
23609;DHT22;11982;50.810;4.442;2023-05-07T08:40:11;15.60;99.90
23609;DHT22;11982;50.810;4.442;2023-05-07T08:46:00;15.70;99.90
23609;DHT22;11982;50.810;4.442;2023-05-07T08:48:29;15.70;99.90
23609;DHT22;11982;50.810;4.442;2023-05-07T08:50:58;15.90;99.90
23609;DHT22;11982;50.810;4.442;2023-05-07T08:53:23;15.70;99.90
23609;DHT22;11982;50.810;4.442;2023-05-07T08:55:49;15.80;99.90
23609;DHT22;11982;50.810;4.442;2023-05-07T08:58:15;16.00;99.90
23609;DHT22;11982;50.810;4.442;2023-05-07T09:00:42;16.30;99.90
23609;DHT22;11982;50.810;4.442;2023-05-07T09:03:08;16.70;99.90
23609;DHT22;11982;50.810;4.442;2023-05-07T09:05:33;16.80;99.90
23609;DHT22;11982;50.810;4.442;2023-05-07T09:08:01;16.80;99.90
23609;DHT22;11982;50.810;4.442;2023-05-07T09:10:28;16.70;99.90
23609;DHT22;11982;50.810;4.442;2023-05-07T09:16:16;17.00;99.90
23609;DHT22;11982;50.810;4.442;2023-05-07T09:18:43;17.40;99.90
23609;DHT22;11982;50.810;4.442;2023-05-07T09:21:15;17.40;99.90
23609;DHT22;11982;50.810;4.442;2023-05-07T09:23:41;17.50;99.90
23609;DHT22;11982;50.810;4.442;2023-05-07T09:26:07;17.40;99.90
23609;DHT22;11982;50.810;4.442;2023-05-07T09:28:40;17.40;99.90
23609;DHT22;11982;50.810;4.442;2023-05-07T09:31:10;17.50;99.90
23609;DHT22;11982;50.810;4.442;2023-05-07T09:33:36;17.50;99.90
23609;DHT22;11982;50.810;4.442;2023-05-07T09:36:06;17.80;99.90
23609;DHT22;11982;50.810;4.442;2023-05-07T09:38:33;18.20;99.90
23609;DHT22;11982;50.810;4.442;2023-05-07T09:46:54;17.60;99.90
23609;DHT22;11982;50.810;4.442;2023-05-07T09:49:24;17.80;99.90
23609;DHT22;11982;50.810;4.442;2023-05-07T09:51:51;18.00;99.90
23609;DHT22;11982;50.810;4.442;2023-05-07T09:54:18;18.10;99.90
23609;DHT22;11982;50.810;4.442;2023-05-07T09:56:48;18.20;99.90
23609;DHT22;11982;50.810;4.442;2023-05-07T09:59:16;18.40;99.90
23609;DHT22;11982;50.810;4.442;2023-05-07T10:01:43;18.60;99.90
23609;DHT22;11982;50.810;4.442;2023-05-07T10:04:10;18.60;99.90
23609;DHT22;11982;50.810;4.442;2023-05-07T10:06:37;18.60;99.90
23609;DHT22;11982;50.810;4.442;2023-05-07T10:09:04;18.70;99.90
23609;DHT22;11982;50.810;4.442;2023-05-07T10:11:36;18.80;99.90
23609;DHT22;11982;50.810;4.442;2023-05-07T10:17:24;19.30;99.90
23609;DHT22;11982;50.810;4.442;2023-05-07T10:19:50;19.10;99.90
23609;DHT22;11982;50.810;4.442;2023-05-07T10:22:18;18.70;99.90
23609;DHT22;11982;50.810;4.442;2023-05-07T10:24:49;18.20;99.90
23609;DHT22;11982;50.810;4.442;2023-05-07T10:27:18;18.10;99.90
23609;DHT22;11982;50.810;4.442;2023-05-07T10:32:39;18.30;99.90
23609;DHT22;11982;50.810;4.442;2023-05-07T10:35:19;18.20;99.90
23609;DHT22;11982;50.810;4.442;2023-05-07T10:37:46;18.50;99.90
23609;DHT22;11982;50.810;4.442;2023-05-07T10:40:12;18.60;99.90
23609;DHT22;11982;50.810;4.442;2023-05-07T10:42:38;18.50;99.90
23609;DHT22;11982;50.810;4.442;2023-05-07T10:45:14;18.60;99.90
23609;DHT22;11982;50.810;4.442;2023-05-07T10:48:09;18.80;99.90
23609;DHT22;11982;50.810;4.442;2023-05-07T10:50:36;18.80;99.90
23609;DHT22;11982;50.810;4.442;2023-05-07T10:53:21;18.70;99.90
23609;DHT22;11982;50.810;4.442;2023-05-07T10:58:40;18.20;99.90
23609;DHT22;11982;50.810;4.442;2023-05-07T11:01:06;18.00;99.90
23609;DHT22;11982;50.810;4.442;2023-05-07T11:03:32;18.30;99.90
23609;DHT22;11982;50.810;4.442;2023-05-07T11:06:11;18.40;99.90
23609;DHT22;11982;50.810;4.442;2023-05-07T11:11:18;18.40;99.90
23609;DHT22;11982;50.810;4.442;2023-05-07T11:13:49;18.70;99.90
23609;DHT22;11982;50.810;4.442;2023-05-07T11:16:19;18.60;99.90
23609;DHT22;11982;50.810;4.442;2023-05-07T11:18:49;18.30;99.90
23609;DHT22;11982;50.810;4.442;2023-05-07T11:24:00;18.50;99.90
23609;DHT22;11982;50.810;4.442;2023-05-07T11:26:28;18.70;99.90
23609;DHT22;11982;50.810;4.442;2023-05-07T11:28:54;19.00;99.90
23609;DHT22;11982;50.810;4.442;2023-05-07T11:31:22;18.60;99.90
23609;DHT22;11982;50.810;4.442;2023-05-07T11:33:49;18.50;99.90
23609;DHT22;11982;50.810;4.442;2023-05-07T11:36:15;18.80;99.90
23609;DHT22;11982;50.810;4.442;2023-05-07T11:38:41;18.70;99.90
23609;DHT22;11982;50.810;4.442;2023-05-07T11:41:07;18.40;99.90
23609;DHT22;11982;50.810;4.442;2023-05-07T11:43:33;18.20;99.90
23609;DHT22;11982;50.810;4.442;2023-05-07T11:46:10;18.10;99.90
23609;DHT22;11982;50.810;4.442;2023-05-07T11:48:36;18.20;99.90
23609;DHT22;11982;50.810;4.442;2023-05-07T11:51:04;18.10;99.90
23609;DHT22;11982;50.810;4.442;2023-05-07T11:53:48;18.10;99.90
23609;DHT22;11982;50.810;4.442;2023-05-07T11:56:16;18.40;99.90
23609;DHT22;11982;50.810;4.442;2023-05-07T11:58:43;18.70;99.90
23609;DHT22;11982;50.810;4.442;2023-05-07T12:01:10;18.70;99.90
23609;DHT22;11982;50.810;4.442;2023-05-07T12:03:37;19.00;99.90
23609;DHT22;11982;50.810;4.442;2023-05-07T12:06:05;19.20;99.90
23609;DHT22;11982;50.810;4.442;2023-05-07T12:08:37;19.00;99.90
23609;DHT22;11982;50.810;4.442;2023-05-07T12:11:03;19.00;99.90
23609;DHT22;11982;50.810;4.442;2023-05-07T12:13:32;19.00;99.90
23609;DHT22;11982;50.810;4.442;2023-05-07T12:15:57;19.10;99.90
23609;DHT22;11982;50.810;4.442;2023-05-07T12:18:25;19.00;99.90
23609;DHT22;11982;50.810;4.442;2023-05-07T12:20:51;19.10;99.90
23609;DHT22;11982;50.810;4.442;2023-05-07T12:23:17;19.50;99.90
23609;DHT22;11982;50.810;4.442;2023-05-07T12:25:43;19.60;99.90
23609;DHT22;11982;50.810;4.442;2023-05-07T12:28:16;19.70;99.90
23609;DHT22;11982;50.810;4.442;2023-05-07T12:34:45;19.20;99.90
23609;DHT22;11982;50.810;4.442;2023-05-07T12:37:11;19.10;99.90
23609;DHT22;11982;50.810;4.442;2023-05-07T12:39:38;19.00;99.90
23609;DHT22;11982;50.810;4.442;2023-05-07T12:42:04;19.20;99.90
23609;DHT22;11982;50.810;4.442;2023-05-07T12:47:51;19.50;99.90
23609;DHT22;11982;50.810;4.442;2023-05-07T12:50:17;19.20;99.90
23609;DHT22;11982;50.810;4.442;2023-05-07T12:52:45;19.50;99.90
23609;DHT22;11982;50.810;4.442;2023-05-07T12:55:13;19.60;99.90
23609;DHT22;11982;50.810;4.442;2023-05-07T12:57:45;19.20;99.90
23609;DHT22;11982;50.810;4.442;2023-05-07T13:03:36;18.60;99.90
23609;DHT22;11982;50.810;4.442;2023-05-07T13:06:04;18.40;99.90
23609;DHT22;11982;50.810;4.442;2023-05-07T13:08:32;18.80;99.90
23609;DHT22;11982;50.810;4.442;2023-05-07T13:11:00;19.10;99.90
23609;DHT22;11982;50.810;4.442;2023-05-07T13:13:34;19.00;99.90
23609;DHT22;11982;50.810;4.442;2023-05-07T13:19:22;19.10;99.90
23609;DHT22;11982;50.810;4.442;2023-05-07T13:21:47;19.00;99.90
23609;DHT22;11982;50.810;4.442;2023-05-07T13:24:14;19.50;99.90
23609;DHT22;11982;50.810;4.442;2023-05-07T13:26:40;19.50;99.90
23609;DHT22;11982;50.810;4.442;2023-05-07T13:29:06;19.50;99.90
23609;DHT22;11982;50.810;4.442;2023-05-07T13:34:53;19.40;99.90
23609;DHT22;11982;50.810;4.442;2023-05-07T13:37:19;19.50;99.90
23609;DHT22;11982;50.810;4.442;2023-05-07T13:39:45;19.40;99.90
23609;DHT22;11982;50.810;4.442;2023-05-07T13:42:11;19.30;99.90
23609;DHT22;11982;50.810;4.442;2023-05-07T13:44:36;19.20;99.90
23609;DHT22;11982;50.810;4.442;2023-05-07T13:50:24;19.50;99.90
23609;DHT22;11982;50.810;4.442;2023-05-07T13:52:52;19.40;99.90
23609;DHT22;11982;50.810;4.442;2023-05-07T13:55:18;19.50;99.90
23609;DHT22;11982;50.810;4.442;2023-05-07T13:57:45;19.10;99.90
23609;DHT22;11982;50.810;4.442;2023-05-07T14:00:12;18.90;99.90
23609;DHT22;11982;50.810;4.442;2023-05-07T14:02:38;19.00;99.90
23609;DHT22;11982;50.810;4.442;2023-05-07T14:05:04;19.10;99.90
23609;DHT22;11982;50.810;4.442;2023-05-07T14:07:30;19.20;99.90
23609;DHT22;11982;50.810;4.442;2023-05-07T14:09:56;19.40;99.90
23609;DHT22;11982;50.810;4.442;2023-05-07T14:12:22;19.10;99.90
23609;DHT22;11982;50.810;4.442;2023-05-07T14:14:48;18.90;99.90
23609;DHT22;11982;50.810;4.442;2023-05-07T14:20:37;18.70;99.90
23609;DHT22;11982;50.810;4.442;2023-05-07T14:23:03;18.70;99.90
23609;DHT22;11982;50.810;4.442;2023-05-07T14:25:29;18.70;99.90
23609;DHT22;11982;50.810;4.442;2023-05-07T14:27:54;18.60;99.90
23609;DHT22;11982;50.810;4.442;2023-05-07T14:30:20;18.60;99.90
23609;DHT22;11982;50.810;4.442;2023-05-07T14:32:47;18.50;99.90
23609;DHT22;11982;50.810;4.442;2023-05-07T14:35:13;18.80;99.90
23609;DHT22;11982;50.810;4.442;2023-05-07T14:37:38;19.00;99.90
23609;DHT22;11982;50.810;4.442;2023-05-07T14:40:05;18.60;99.90
23609;DHT22;11982;50.810;4.442;2023-05-07T14:42:31;18.60;99.90
23609;DHT22;11982;50.810;4.442;2023-05-07T14:44:57;18.70;99.90
23609;DHT22;11982;50.810;4.442;2023-05-07T14:50:47;19.50;99.90
23609;DHT22;11982;50.810;4.442;2023-05-07T14:53:13;19.70;99.90
23609;DHT22;11982;50.810;4.442;2023-05-07T14:55:39;19.80;99.90
23609;DHT22;11982;50.810;4.442;2023-05-07T14:58:05;19.80;99.90
23609;DHT22;11982;50.810;4.442;2023-05-07T15:00:30;20.00;99.90
23609;DHT22;11982;50.810;4.442;2023-05-07T15:06:21;20.00;99.90
23609;DHT22;11982;50.810;4.442;2023-05-07T15:08:46;20.10;99.90
23609;DHT22;11982;50.810;4.442;2023-05-07T15:11:12;20.00;99.90
23609;DHT22;11982;50.810;4.442;2023-05-07T15:13:38;19.70;99.90
23609;DHT22;11982;50.810;4.442;2023-05-07T15:16:04;19.60;99.90
23609;DHT22;11982;50.810;4.442;2023-05-07T15:18:29;19.50;99.90
23609;DHT22;11982;50.810;4.442;2023-05-07T15:20:55;19.50;99.90
23609;DHT22;11982;50.810;4.442;2023-05-07T15:23:22;19.70;99.90
23609;DHT22;11982;50.810;4.442;2023-05-07T15:25:48;19.70;99.90
23609;DHT22;11982;50.810;4.442;2023-05-07T15:28:13;19.50;99.90
23609;DHT22;11982;50.810;4.442;2023-05-07T15:30:39;19.70;99.90
23609;DHT22;11982;50.810;4.442;2023-05-07T15:36:27;19.80;99.90
23609;DHT22;11982;50.810;4.442;2023-05-07T15:38:53;19.80;99.90
23609;DHT22;11982;50.810;4.442;2023-05-07T15:41:18;19.80;99.90
23609;DHT22;11982;50.810;4.442;2023-05-07T15:43:46;20.20;99.90
23609;DHT22;11982;50.810;4.442;2023-05-07T15:46:17;20.40;99.90
23609;DHT22;11982;50.810;4.442;2023-05-07T15:52:05;20.60;99.90
23609;DHT22;11982;50.810;4.442;2023-05-07T15:54:31;20.40;99.90
23609;DHT22;11982;50.810;4.442;2023-05-07T15:56:57;20.00;99.90
23609;DHT22;11982;50.810;4.442;2023-05-07T15:59:22;19.50;99.90
23609;DHT22;11982;50.810;4.442;2023-05-07T16:01:48;19.60;99.90
23609;DHT22;11982;50.810;4.442;2023-05-07T16:04:14;19.90;99.90
23609;DHT22;11982;50.810;4.442;2023-05-07T16:06:39;20.00;99.90
23609;DHT22;11982;50.810;4.442;2023-05-07T16:09:05;19.80;99.90
23609;DHT22;11982;50.810;4.442;2023-05-07T16:11:31;19.70;99.90
23609;DHT22;11982;50.810;4.442;2023-05-07T16:13:58;20.00;99.90
23609;DHT22;11982;50.810;4.442;2023-05-07T16:16:26;20.10;99.90
23609;DHT22;11982;50.810;4.442;2023-05-07T16:22:16;20.00;99.90
23609;DHT22;11982;50.810;4.442;2023-05-07T16:24:42;19.50;99.90
23609;DHT22;11982;50.810;4.442;2023-05-07T16:27:07;19.20;99.90
23609;DHT22;11982;50.810;4.442;2023-05-07T16:29:33;18.90;99.90
23609;DHT22;11982;50.810;4.442;2023-05-07T16:31:59;18.70;99.90
23609;DHT22;11982;50.810;4.442;2023-05-07T16:34:25;18.80;99.90
23609;DHT22;11982;50.810;4.442;2023-05-07T16:36:50;18.90;99.90
23609;DHT22;11982;50.810;4.442;2023-05-07T16:39:16;18.60;99.90
23609;DHT22;11982;50.810;4.442;2023-05-07T16:41:42;18.40;99.90
23609;DHT22;11982;50.810;4.442;2023-05-07T16:44:08;18.30;99.90
23609;DHT22;11982;50.810;4.442;2023-05-07T16:46:34;18.20;99.90
23609;DHT22;11982;50.810;4.442;2023-05-07T16:52:22;18.40;99.90
23609;DHT22;11982;50.810;4.442;2023-05-07T16:54:48;18.40;99.90
23609;DHT22;11982;50.810;4.442;2023-05-07T16:57:13;18.70;99.90
23609;DHT22;11982;50.810;4.442;2023-05-07T16:59:39;18.90;99.90
23609;DHT22;11982;50.810;4.442;2023-05-07T17:02:05;19.10;99.90
23609;DHT22;11982;50.810;4.442;2023-05-07T17:07:54;19.40;99.90
23609;DHT22;11982;50.810;4.442;2023-05-07T17:10:20;19.60;99.90
23609;DHT22;11982;50.810;4.442;2023-05-07T17:12:46;19.80;99.90
23609;DHT22;11982;50.810;4.442;2023-05-07T17:15:12;19.70;99.90
23609;DHT22;11982;50.810;4.442;2023-05-07T17:17:38;19.70;99.90
23609;DHT22;11982;50.810;4.442;2023-05-07T17:23:26;19.50;99.90
23609;DHT22;11982;50.810;4.442;2023-05-07T17:25:51;19.80;99.90
23609;DHT22;11982;50.810;4.442;2023-05-07T17:28:17;19.70;99.90
23609;DHT22;11982;50.810;4.442;2023-05-07T17:30:42;19.40;99.90
23609;DHT22;11982;50.810;4.442;2023-05-07T17:33:10;19.30;99.90
23609;DHT22;11982;50.810;4.442;2023-05-07T17:35:36;19.00;99.90
23609;DHT22;11982;50.810;4.442;2023-05-07T17:38:02;18.60;99.90
23609;DHT22;11982;50.810;4.442;2023-05-07T17:40:28;18.70;99.90
23609;DHT22;11982;50.810;4.442;2023-05-07T17:42:56;18.80;99.90
23609;DHT22;11982;50.810;4.442;2023-05-07T17:45:22;18.90;99.90
23609;DHT22;11982;50.810;4.442;2023-05-07T17:47:47;18.80;99.90
23609;DHT22;11982;50.810;4.442;2023-05-07T17:53:35;18.80;99.90